createdAt,value
2018-01-15T00:02:02.352Z,36.40
2018-01-15T00:04:30.730Z,35.60
2018-01-15T00:06:59.136Z,35.85
2018-01-15T00:09:26.763Z,39.47
2018-01-15T00:11:55.145Z,39.42
2018-01-15T00:14:22.751Z,34.92
2018-01-15T00:16:50.371Z,33.92
2018-01-15T00:19:17.980Z,41.42
2018-01-15T00:21:45.588Z,45.50
2018-01-15T00:24:13.201Z,42.40
2018-01-15T00:26:40.795Z,37.67
2018-01-15T00:29:08.409Z,37.80
2018-01-15T00:31:36.035Z,38.03
2018-01-15T00:34:03.628Z,52.05
2018-01-15T00:36:31.264Z,34.67
2018-01-15T00:38:58.873Z,39.22
2018-01-15T00:41:27.291Z,36.42
2018-01-15T00:43:54.915Z,42.78
2018-01-15T00:46:22.542Z,44.30
2018-01-15T00:48:50.128Z,44.15
2018-01-15T00:51:17.723Z,44.20
2018-01-15T00:53:47.109Z,49.15
2018-01-15T00:56:14.745Z,48.00
2018-01-15T00:58:42.338Z,52.05
2018-01-15T01:01:09.941Z,58.63
2018-01-15T01:03:38.293Z,49.38
2018-01-15T01:06:05.899Z,48.15
2018-01-15T01:08:33.516Z,51.35
2018-01-15T01:11:01.133Z,54.95
2018-01-15T01:13:28.774Z,48.13
2018-01-15T01:15:57.117Z,52.70
2018-01-15T01:18:24.730Z,52.62
2018-01-15T01:20:52.363Z,53.65
2018-01-15T01:23:19.959Z,59.30
2018-01-15T01:25:48.354Z,52.90
2018-01-15T01:28:16.771Z,70.28
2018-01-15T01:30:44.396Z,61.17
2018-01-15T01:33:12.766Z,52.15
2018-01-15T01:35:40.377Z,65.85
2018-01-15T01:38:07.989Z,67.05
2018-01-15T01:40:35.604Z,66.20
2018-01-15T01:43:03.268Z,70.72
2018-01-15T01:45:30.905Z,60.50
2018-01-15T01:47:59.312Z,68.68
2018-01-15T01:50:26.950Z,63.97
2018-01-15T01:52:54.547Z,64.12
2018-01-15T01:55:22.160Z,62.70
2018-01-15T01:57:49.740Z,79.85
2018-01-15T02:00:17.339Z,69.82
2018-01-15T02:02:45.755Z,96.40
2018-01-15T02:05:13.344Z,90.65
2018-01-15T02:07:40.981Z,90.03
2018-01-15T02:10:08.600Z,100.40
2018-01-15T02:12:36.991Z,75.20
2018-01-15T02:15:05.404Z,88.90
2018-01-15T02:17:33.003Z,86.32
2018-01-15T02:20:00.609Z,96.68
2018-01-15T02:22:28.235Z,88.22
2018-01-15T02:24:56.026Z,91.45
2018-01-15T02:27:24.403Z,95.75
2018-01-15T02:29:52.803Z,72.07
2018-01-15T02:32:21.185Z,78.87
2018-01-15T02:34:50.673Z,86.72
2018-01-15T02:37:18.257Z,113.55
2018-01-15T02:39:45.853Z,94.25
2018-01-15T02:42:13.499Z,121.03
2018-01-15T02:44:41.110Z,120.50
2018-01-15T02:47:08.696Z,102.40
2018-01-15T02:49:36.335Z,106.65
2018-01-15T02:52:03.932Z,120.75
2018-01-15T02:54:31.586Z,118.75
2018-01-15T02:56:59.215Z,108.68
2018-01-15T02:59:26.802Z,114.72
2018-01-15T03:01:54.445Z,96.82
2018-01-15T03:04:22.077Z,86.90
2018-01-15T03:06:50.474Z,85.93
2018-01-15T03:09:18.873Z,91.00
2018-01-15T03:11:46.493Z,97.90
2018-01-15T03:14:14.132Z,104.47
2018-01-15T03:16:41.780Z,101.93
2018-01-15T03:19:09.391Z,118.55
2018-01-15T03:21:37.029Z,137.43
2018-01-15T03:24:08.498Z,131.50
2018-01-15T03:26:36.122Z,135.98
2018-01-15T03:29:03.753Z,114.75
2018-01-15T03:31:31.350Z,122.93
2018-01-15T03:33:59.030Z,107.72
2018-01-15T03:36:27.036Z,147.60
2018-01-15T03:38:54.659Z,130.93
2018-01-15T03:41:22.276Z,123.60
2018-01-15T03:43:49.903Z,111.93
2018-01-15T03:46:17.535Z,122.60
2018-01-15T03:48:45.135Z,117.82
2018-01-15T03:51:12.761Z,130.40
2018-01-15T03:53:40.363Z,137.23
2018-01-15T03:56:07.973Z,129.68
2018-01-15T03:58:35.626Z,142.75
2018-01-15T04:01:03.230Z,131.23
2018-01-15T04:03:31.679Z,135.80
2018-01-15T04:05:59.295Z,115.50
2018-01-15T04:08:26.893Z,123.40
2018-01-15T04:10:54.518Z,114.07
2018-01-15T04:13:22.904Z,147.40
2018-01-15T04:15:52.236Z,113.97
2018-01-15T04:18:19.885Z,120.35
2018-01-15T04:20:47.486Z,128.02
2018-01-15T04:23:15.070Z,106.00
2018-01-15T04:25:42.724Z,119.18
2018-01-15T04:28:10.358Z,147.20
2018-01-15T04:30:37.959Z,146.43
2018-01-15T04:33:05.612Z,143.07
2018-01-15T04:35:33.234Z,113.53
2018-01-15T04:38:01.619Z,134.68
2018-01-15T04:40:30.019Z,145.52
2018-01-15T04:42:57.615Z,138.62
2018-01-15T04:45:25.246Z,153.40
2018-01-15T04:47:53.614Z,145.40
2018-01-15T04:50:22.051Z,128.45
2018-01-15T04:52:49.639Z,125.10
2018-01-15T04:55:17.274Z,115.15
2018-01-15T04:57:44.876Z,142.95
2018-01-15T05:00:12.957Z,146.15
2018-01-15T05:02:41.337Z,158.25
2018-01-15T05:05:08.947Z,138.73
2018-01-15T05:07:36.574Z,128.75
2018-01-15T05:10:04.201Z,114.03
2018-01-15T05:12:31.830Z,134.43
2018-01-15T05:14:59.435Z,142.48
2018-01-15T05:17:27.074Z,143.82
2018-01-15T05:19:54.715Z,115.05
2018-01-15T05:22:22.313Z,118.95
2018-01-15T05:24:49.959Z,118.60
2018-01-15T05:27:18.319Z,115.68
2018-01-15T05:29:45.925Z,112.70
2018-01-15T05:32:13.578Z,106.53
2018-01-15T05:34:41.190Z,118.90
2018-01-15T05:37:08.817Z,110.07
2018-01-15T05:39:36.465Z,123.05
2018-01-15T05:42:05.642Z,116.10
2018-01-15T05:44:33.282Z,122.43
2018-01-15T05:47:00.878Z,127.43
2018-01-15T05:49:28.462Z,124.97
2018-01-15T05:52:08.558Z,118.62
2018-01-15T05:54:36.143Z,123.93
2018-01-15T05:57:03.782Z,127.00
2018-01-15T05:59:31.410Z,120.45
2018-01-15T06:01:59.779Z,119.60
2018-01-15T06:04:27.679Z,116.12
2018-01-15T06:06:55.332Z,104.72
2018-01-15T06:09:27.886Z,91.03
2018-01-15T06:11:55.543Z,93.68
2018-01-15T06:14:23.134Z,93.82
2018-01-15T06:16:51.528Z,81.75
2018-01-15T06:19:19.908Z,76.47
2018-01-15T06:21:48.262Z,81.15
2018-01-15T06:24:15.910Z,81.75
2018-01-15T06:26:43.503Z,79.05
2018-01-15T06:29:11.125Z,89.28
2018-01-15T06:31:38.754Z,74.12
2018-01-15T06:34:06.352Z,75.30
2018-01-15T06:36:34.002Z,68.93
2018-01-15T06:39:02.402Z,71.20
2018-01-15T06:41:30.061Z,71.03
2018-01-15T06:43:57.707Z,64.90
2018-01-15T06:46:26.085Z,72.35
2018-01-15T06:48:53.709Z,63.53
2018-01-15T06:51:22.367Z,64.55
2018-01-15T06:53:49.982Z,63.22
2018-01-15T06:56:17.583Z,62.10
2018-01-15T06:58:45.989Z,65.00
2018-01-15T07:01:13.613Z,67.87
2018-01-15T07:03:41.234Z,58.83
2018-01-15T07:06:08.854Z,78.37
2018-01-15T07:08:36.475Z,62.88
2018-01-15T07:11:04.084Z,54.83
2018-01-15T07:13:32.451Z,61.65
2018-01-15T07:16:01.082Z,52.00
2018-01-15T07:18:28.684Z,53.28
2018-01-15T07:20:56.264Z,59.80
2018-01-15T07:23:23.927Z,59.25
2018-01-15T07:25:51.528Z,58.45
2018-01-15T07:28:19.877Z,57.45
2018-01-15T07:30:47.522Z,59.28
2018-01-15T07:33:15.118Z,67.07
2018-01-15T07:35:42.751Z,55.50
2018-01-15T07:38:11.118Z,70.35
2018-01-15T07:40:38.752Z,58.75
2018-01-15T07:43:06.365Z,66.12
2018-01-15T07:45:33.967Z,68.03
2018-01-15T07:48:01.620Z,69.12
2018-01-15T07:50:29.201Z,57.58
2018-01-15T07:52:56.801Z,60.90
2018-01-15T07:55:25.195Z,60.83
2018-01-15T07:57:52.812Z,49.58
2018-01-15T08:00:20.403Z,42.53
2018-01-15T08:02:48.851Z,36.95
2018-01-15T08:05:16.493Z,37.58
2018-01-15T08:07:44.407Z,36.20
2018-01-15T08:10:12.793Z,37.80
2018-01-15T08:12:40.403Z,39.78
2018-01-15T08:15:08.039Z,36.83
2018-01-15T08:17:36.787Z,30.12
2018-01-15T08:20:04.394Z,34.60
2018-01-15T08:22:32.888Z,28.52
2018-01-15T08:25:00.461Z,32.63
2018-01-15T08:27:28.103Z,33.03
2018-01-15T08:29:55.707Z,33.10
2018-01-15T08:32:23.299Z,31.87
2018-01-15T08:34:50.922Z,30.83
2018-01-15T08:37:18.535Z,29.93
2018-01-15T08:39:46.167Z,27.43
2018-01-15T08:42:13.764Z,26.90
2018-01-15T08:44:41.369Z,25.30
2018-01-15T08:47:10.186Z,23.93
2018-01-15T08:49:37.802Z,28.97
2018-01-15T08:52:05.395Z,24.57
2018-01-15T08:54:33.812Z,33.73
2018-01-15T08:57:01.631Z,29.02
2018-01-15T08:59:29.245Z,27.75
2018-01-15T09:01:56.858Z,37.88
2018-01-15T09:04:24.449Z,34.40
2018-01-15T09:06:52.846Z,34.50
2018-01-15T09:09:20.506Z,32.38
2018-01-15T09:11:48.874Z,32.95
2018-01-15T09:14:17.325Z,30.70
2018-01-15T09:16:44.927Z,28.45
2018-01-15T09:19:13.310Z,28.48
2018-01-15T09:21:42.711Z,28.90
2018-01-15T09:24:11.085Z,26.00
2018-01-15T09:26:38.700Z,28.40
2018-01-15T09:29:06.332Z,25.58
2018-01-15T09:31:33.940Z,27.73
2018-01-15T09:34:01.618Z,22.85
2018-01-15T09:36:29.444Z,25.80
2018-01-15T09:38:57.061Z,23.73
2018-01-15T09:41:24.933Z,21.20
2018-01-15T09:43:53.383Z,22.27
2018-01-15T09:46:21.047Z,18.27
2018-01-15T09:48:48.621Z,16.50
2018-01-15T09:51:16.314Z,21.25
2018-01-15T09:53:43.982Z,16.62
2018-01-15T09:56:11.566Z,17.62
2018-01-15T09:58:39.294Z,16.42
2018-01-15T10:01:07.007Z,15.25
2018-01-15T10:03:34.611Z,15.43
2018-01-15T10:06:02.242Z,13.00
2018-01-15T10:08:29.850Z,16.45
2018-01-15T10:10:57.469Z,15.23
2018-01-15T10:13:25.097Z,18.55
2018-01-15T10:15:52.690Z,21.77
2018-01-15T10:18:20.356Z,31.95
2018-01-15T10:20:47.953Z,38.17
2018-01-15T10:23:16.325Z,35.30
2018-01-15T10:25:43.965Z,38.85
2018-01-15T10:28:11.548Z,32.25
2018-01-15T10:30:39.188Z,27.20
2018-01-15T10:33:06.802Z,28.23
2018-01-15T10:35:35.187Z,30.60
2018-01-15T10:38:03.553Z,34.58
2018-01-15T10:40:31.177Z,25.85
2018-01-15T10:42:59.700Z,25.23
2018-01-15T10:45:27.316Z,23.30
2018-01-15T10:47:54.931Z,15.10
2018-01-15T10:50:22.576Z,15.80
2018-01-15T10:52:51.216Z,17.05
2018-01-15T10:55:19.599Z,13.07
2018-01-15T10:57:47.228Z,14.55
2018-01-15T11:00:14.855Z,13.10
2018-01-15T11:02:42.495Z,14.52
2018-01-15T11:05:10.105Z,8.40
2018-01-15T11:07:37.772Z,5.40
2018-01-15T11:10:06.401Z,11.43
2018-01-15T11:12:34.764Z,10.43
2018-01-15T11:15:02.391Z,4.07
2018-01-15T11:17:30.038Z,4.72
2018-01-15T11:19:58.414Z,6.30
2018-01-15T11:22:26.893Z,6.40
2018-01-15T11:24:54.657Z,4.78
2018-01-15T11:27:22.285Z,3.95
2018-01-15T11:29:49.889Z,3.25
2018-01-15T11:32:17.527Z,4.12
2018-01-15T11:34:45.120Z,3.15
2018-01-15T11:37:12.765Z,4.47
2018-01-15T11:39:40.383Z,2.72
2018-01-15T11:42:07.967Z,4.10
2018-01-15T11:44:36.347Z,3.00
2018-01-15T11:47:03.982Z,4.45
2018-01-15T11:49:32.382Z,5.62
2018-01-15T11:52:00.977Z,5.10
2018-01-15T11:54:28.574Z,2.63
2018-01-15T11:56:56.174Z,2.97
2018-01-15T11:59:24.560Z,3.47
2018-01-15T12:01:52.949Z,4.80
2018-01-15T12:04:21.328Z,3.57
2018-01-15T12:06:49.684Z,4.37
2018-01-15T12:09:17.268Z,3.30
2018-01-15T12:11:44.909Z,2.73
2018-01-15T12:14:12.594Z,4.23
2018-01-15T12:16:40.181Z,6.13
2018-01-15T12:19:08.568Z,2.90
2018-01-15T12:21:36.931Z,2.87
2018-01-15T12:24:04.512Z,4.50
2018-01-15T12:26:32.900Z,3.93
2018-01-15T12:29:01.270Z,2.60
2018-01-15T12:31:28.880Z,2.83
2018-01-15T12:33:56.505Z,3.30
2018-01-15T12:36:24.886Z,4.03
2018-01-15T12:38:53.284Z,3.50
2018-01-15T12:41:21.640Z,3.97
2018-01-15T12:43:49.212Z,3.43
2018-01-15T12:46:16.831Z,3.53
2018-01-15T12:48:44.433Z,5.00
2018-01-15T12:51:12.078Z,5.57
2018-01-15T12:53:39.640Z,4.97
2018-01-15T12:56:07.234Z,4.93
2018-01-15T12:58:34.845Z,6.60
2018-01-15T13:01:02.459Z,9.37
2018-01-15T13:03:30.056Z,6.90
2018-01-15T13:06:05.270Z,7.37
2018-01-15T13:08:40.903Z,9.83
2018-01-15T13:11:08.561Z,10.07
2018-01-15T13:13:36.130Z,8.30
2018-01-15T13:16:03.717Z,5.93
2018-01-15T13:18:31.321Z,6.10
2018-01-15T13:20:58.926Z,6.63
2018-01-15T13:23:26.521Z,9.23
2018-01-15T13:25:54.152Z,4.13
2018-01-15T13:28:21.927Z,5.03
2018-01-15T13:30:49.582Z,4.47
2018-01-15T13:33:17.205Z,7.83
2018-01-15T13:35:44.811Z,4.07
2018-01-15T13:38:12.385Z,3.77
2018-01-15T13:40:39.993Z,4.10
2018-01-15T13:43:08.429Z,6.67
2018-01-15T13:45:36.199Z,4.73
2018-01-15T13:48:04.075Z,5.07
2018-01-15T13:50:31.769Z,8.40
2018-01-15T13:52:59.344Z,5.40
2018-01-15T13:55:26.996Z,6.73
2018-01-15T13:57:54.586Z,8.17
2018-01-15T14:00:22.986Z,14.13
2018-01-15T14:02:50.582Z,4.97
2018-01-15T14:05:18.210Z,4.67
2018-01-15T14:07:45.882Z,7.63
2018-01-15T14:10:13.494Z,8.83
2018-01-15T14:12:41.077Z,9.47
2018-01-15T14:15:08.697Z,9.87
2018-01-15T14:17:36.362Z,12.17
2018-01-15T14:20:03.982Z,7.67
2018-01-15T14:22:31.592Z,7.43
2018-01-15T14:24:59.203Z,7.25
2018-01-15T14:27:26.812Z,8.00
2018-01-15T14:29:54.376Z,6.10
2018-01-15T14:32:21.970Z,7.80
2018-01-15T14:34:49.617Z,4.60
2018-01-15T14:37:17.246Z,5.45
2018-01-15T14:39:44.953Z,5.10
2018-01-15T14:42:12.487Z,4.70
2018-01-15T14:44:40.913Z,4.65
2018-01-15T14:47:08.533Z,5.20
2018-01-15T14:49:36.884Z,7.43
2018-01-15T14:52:04.448Z,4.73
2018-01-15T14:54:32.058Z,6.10
2018-01-15T14:57:00.438Z,4.87
2018-01-15T14:59:28.076Z,8.53
2018-01-15T15:01:55.718Z,7.03
2018-01-15T15:04:23.300Z,5.03
2018-01-15T15:06:50.957Z,5.77
2018-01-15T15:09:19.572Z,3.73
2018-01-15T15:11:47.187Z,4.37
2018-01-15T15:14:14.799Z,4.70
2018-01-15T15:16:42.416Z,3.83
2018-01-15T15:19:10.021Z,3.50
2018-01-15T15:21:37.626Z,4.37
2018-01-15T15:24:05.251Z,4.22
2018-01-15T15:26:33.194Z,4.97
2018-01-15T15:29:00.814Z,4.17
2018-01-15T15:31:31.711Z,4.45
2018-01-15T15:33:59.349Z,4.40
2018-01-15T15:36:27.996Z,9.63
2018-01-15T15:38:55.604Z,9.13
2018-01-15T15:41:23.258Z,4.23
2018-01-15T15:43:51.633Z,5.47
2018-01-15T15:46:19.246Z,5.18
2018-01-15T15:48:46.941Z,10.05
2018-01-15T15:51:14.522Z,8.23
2018-01-15T15:53:42.875Z,10.55
2018-01-15T15:56:10.528Z,9.98
2018-01-15T15:58:38.130Z,7.35
2018-01-15T16:01:05.786Z,4.78
2018-01-15T16:03:33.455Z,4.85
2018-01-15T16:06:01.042Z,4.95
2018-01-15T16:08:28.655Z,7.28
2018-01-15T16:10:56.297Z,5.57
2018-01-15T16:13:23.921Z,5.25
2018-01-15T16:15:51.571Z,6.22
2018-01-15T16:18:19.178Z,4.22
2018-01-15T16:20:48.140Z,4.85
2018-01-15T16:23:15.768Z,4.30
2018-01-15T16:25:43.389Z,5.18
2018-01-15T16:28:11.027Z,6.78
2018-01-15T16:30:38.612Z,7.40
2018-01-15T16:33:06.236Z,6.07
2018-01-15T16:35:33.949Z,6.97
2018-01-15T16:38:01.672Z,5.35
2018-01-15T16:40:29.311Z,8.00
2018-01-15T16:42:57.687Z,7.85
2018-01-15T16:45:25.269Z,4.32
2018-01-15T16:47:52.900Z,4.32
2018-01-15T16:50:26.362Z,7.60
2018-01-15T16:52:53.967Z,7.35
2018-01-15T16:55:21.554Z,8.35
2018-01-15T16:57:49.925Z,5.43
2018-01-15T17:00:18.317Z,3.72
2018-01-15T17:02:45.930Z,10.70
2018-01-15T17:05:13.713Z,5.60
2018-01-15T17:07:42.102Z,9.30
2018-01-15T17:10:09.718Z,7.10
2018-01-15T17:12:37.323Z,9.32
2018-01-15T17:15:05.198Z,5.90
2018-01-15T17:17:32.795Z,3.95
2018-01-15T17:20:00.439Z,5.00
2018-01-15T17:22:28.074Z,7.00
2018-01-15T17:24:55.693Z,5.32
2018-01-15T17:27:24.148Z,8.88
2018-01-15T17:29:51.771Z,4.95
2018-01-15T17:32:19.405Z,6.25
2018-01-15T17:34:47.020Z,9.27
2018-01-15T17:37:14.622Z,5.97
2018-01-15T17:39:42.252Z,8.23
2018-01-15T17:42:09.860Z,5.95
2018-01-15T17:44:37.462Z,6.32
2018-01-15T17:47:05.844Z,6.25
2018-01-15T17:49:33.451Z,5.75
2018-01-15T17:52:01.111Z,6.15
2018-01-15T17:54:28.747Z,3.97
2018-01-15T17:56:56.800Z,4.78
2018-01-15T17:59:25.215Z,5.05
2018-01-15T18:01:52.797Z,4.72
2018-01-15T18:04:20.441Z,4.20
2018-01-15T18:06:48.041Z,3.97
2018-01-15T18:09:15.645Z,4.47
2018-01-15T18:11:44.069Z,4.78
2018-01-15T18:14:11.673Z,5.55
2018-01-15T18:16:39.286Z,7.97
2018-01-15T18:19:06.881Z,4.55
2018-01-15T18:21:34.488Z,8.00
2018-01-15T18:24:02.126Z,7.90
2018-01-15T18:26:29.718Z,8.02
2018-01-15T18:28:57.381Z,7.75
2018-01-15T18:31:25.016Z,6.07
2018-01-15T18:33:52.603Z,4.90
2018-01-15T18:36:20.223Z,6.82
2018-01-15T18:38:47.835Z,8.05
2018-01-15T18:41:15.738Z,7.90
2018-01-15T18:43:43.379Z,6.43
2018-01-15T18:46:11.749Z,12.88
2018-01-15T18:48:40.148Z,6.60
2018-01-15T18:51:07.772Z,9.02
2018-01-15T18:53:35.381Z,9.10
2018-01-15T18:56:02.989Z,8.80
2018-01-15T18:58:30.600Z,9.13
2018-01-15T19:00:58.211Z,8.73
2018-01-15T19:03:25.840Z,11.23
2018-01-15T19:05:53.426Z,9.80
2018-01-15T19:08:22.792Z,9.93
2018-01-15T19:10:50.815Z,8.43
2018-01-15T19:13:19.644Z,12.63
2018-01-15T19:15:47.362Z,12.35
2018-01-15T19:18:15.733Z,13.35
2018-01-15T19:20:43.344Z,14.32
2018-01-15T19:23:10.967Z,10.15
2018-01-15T19:25:38.591Z,13.68
2018-01-15T19:28:06.213Z,15.45
2018-01-15T19:30:34.085Z,17.65
2018-01-15T19:33:01.773Z,13.45
2018-01-15T19:35:35.409Z,14.98
2018-01-15T19:38:02.996Z,14.43
2018-01-15T19:40:30.636Z,14.40
2018-01-15T19:43:15.011Z,21.17
2018-01-15T19:45:48.460Z,14.07
2018-01-15T19:48:21.636Z,16.12
2018-01-15T19:50:55.515Z,15.75
2018-01-15T19:53:43.947Z,12.85
2018-01-15T19:56:17.214Z,15.63
2018-01-15T19:58:50.612Z,14.00
2018-01-15T20:01:23.763Z,16.02
2018-01-15T20:03:57.131Z,14.30
2018-01-15T20:06:30.347Z,17.37
2018-01-15T20:09:03.597Z,14.23
2018-01-15T20:11:31.262Z,23.85
2018-01-15T20:13:59.167Z,23.58
2018-01-15T20:16:26.814Z,15.38
2018-01-15T20:18:54.430Z,20.58
2018-01-15T20:21:22.800Z,17.50
2018-01-15T20:23:51.173Z,16.60
2018-01-15T20:26:19.579Z,14.40
2018-01-15T20:28:47.978Z,15.80
2018-01-15T20:31:15.684Z,13.95
2018-01-15T20:33:43.318Z,13.73
2018-01-15T20:36:10.903Z,18.27
2018-01-15T20:38:38.656Z,12.95
2018-01-15T20:41:06.303Z,12.18
2018-01-15T20:43:33.942Z,13.75
2018-01-15T20:46:01.580Z,11.50
2018-01-15T20:48:29.193Z,15.27
2018-01-15T20:50:56.830Z,12.40
2018-01-15T20:53:26.666Z,16.62
2018-01-15T20:55:55.238Z,11.82
2018-01-15T20:58:22.850Z,14.15
2018-01-15T21:00:50.506Z,13.60
2018-01-15T21:03:18.115Z,15.95
2018-01-15T21:05:45.701Z,13.45
2018-01-15T21:08:13.317Z,11.18
2018-01-15T21:10:40.907Z,14.57
2018-01-15T21:13:08.504Z,11.20
2018-01-15T21:15:37.785Z,7.87
2018-01-15T21:18:05.453Z,8.20
2018-01-15T21:20:33.054Z,21.65
2018-01-15T21:23:01.433Z,10.63
2018-01-15T21:25:29.618Z,16.67
2018-01-15T21:27:58.007Z,10.32
2018-01-15T21:30:26.400Z,7.15
2018-01-15T21:32:54.025Z,6.43
2018-01-15T21:35:22.515Z,9.10
2018-01-15T21:37:50.099Z,6.12
2018-01-15T21:40:18.512Z,8.30
2018-01-15T21:42:46.127Z,9.27
2018-01-15T21:45:13.744Z,5.20
2018-01-15T21:47:41.342Z,6.80
2018-01-15T21:50:08.954Z,5.20
2018-01-15T21:52:37.360Z,6.43
2018-01-15T21:55:04.949Z,5.93
2018-01-15T21:57:32.577Z,7.28
2018-01-15T22:00:00.937Z,6.32
2018-01-15T22:02:29.596Z,5.10
2018-01-15T22:04:57.188Z,6.35
2018-01-15T22:07:24.778Z,5.20
2018-01-15T22:09:53.149Z,4.10
2018-01-15T22:12:20.778Z,5.07
2018-01-15T22:14:48.385Z,4.00
2018-01-15T22:17:16.770Z,4.35
2018-01-15T22:19:45.246Z,4.05
2018-01-15T22:22:12.876Z,4.55
2018-01-15T22:24:41.476Z,4.07
2018-01-15T22:27:09.072Z,3.67
2018-01-15T22:29:37.428Z,3.65
2018-01-15T22:32:05.092Z,5.05
2018-01-15T22:34:32.739Z,2.90
2018-01-15T22:37:00.394Z,4.90
2018-01-15T22:39:27.999Z,3.87
2018-01-15T22:41:55.634Z,3.22
2018-01-15T22:44:23.214Z,2.65
2018-01-15T22:46:50.836Z,2.70
2018-01-15T22:49:18.431Z,3.25
2018-01-15T22:51:46.053Z,3.03
2018-01-15T22:54:14.699Z,3.33
2018-01-15T22:56:42.372Z,2.37
2018-01-15T22:59:09.969Z,2.90
2018-01-15T23:01:38.418Z,2.15
2018-01-15T23:04:06.046Z,2.28
2018-01-15T23:06:33.674Z,2.08
2018-01-15T23:09:01.282Z,2.20
2018-01-15T23:11:28.924Z,3.30
2018-01-15T23:13:57.300Z,2.75
2018-01-15T23:16:25.710Z,3.33
2018-01-15T23:18:53.334Z,2.65
2018-01-15T23:21:21.961Z,2.50
2018-01-15T23:23:49.529Z,2.08
2018-01-15T23:26:17.127Z,2.97
2018-01-15T23:28:44.800Z,2.67
2018-01-15T23:31:12.412Z,3.72
2018-01-15T23:33:40.762Z,3.00
2018-01-15T23:36:08.387Z,2.22
2018-01-15T23:38:36.020Z,2.92
2018-01-15T23:41:04.409Z,4.30
2018-01-15T23:43:32.848Z,2.30
2018-01-15T23:46:00.451Z,2.83
2018-01-15T23:48:28.841Z,4.35
2018-01-15T23:50:57.250Z,2.75
2018-01-15T23:53:24.869Z,3.20
2018-01-15T23:55:52.502Z,3.83
2018-01-15T23:58:20.124Z,2.70
